Time;durP1;ratioP1;P1;durP2;ratioP2;P2;SDS_P1;SDS_P2;PMS_P1;PMS_P2;Temp;Humidity;BMP_temperature;BMP_pressure;BME280_temperature;BME280_humidity;BME280_pressure;Samples;Min_cycle;Max_cycle;Signal;HPM_P1;HPM_P2
2024/03/08 00:00:34;;;;;;;26.58;16.25;;;4.50;84.90;;;;;;5055665;28;20025;-62
2024/03/08 00:03:02;;;;;;;30.02;16.50;;;4.50;84.90;;;;;;5057671;28;20036;-62
2024/03/08 00:05:28;;;;;;;27.60;17.08;;;4.50;84.90;;;;;;5058380;28;20041;-62
2024/03/08 00:07:54;;;;;;;30.55;17.13;;;4.50;84.90;;;;;;5064799;28;20037;-61
2024/03/08 00:10:20;;;;;;;30.27;17.17;;;4.50;84.90;;;;;;5059367;28;20025;-63
2024/03/08 00:12:46;;;;;;;30.13;17.27;;;4.50;84.90;;;;;;5062757;28;20419;-62
2024/03/08 00:15:17;;;;;;;28.33;16.88;;;4.50;84.90;;;;;;5061892;28;20028;-60
2024/03/08 00:17:43;;;;;;;29.90;17.88;;;4.50;85.10;;;;;;5064196;28;20039;-61
2024/03/08 00:20:09;;;;;;;28.55;17.15;;;4.40;84.90;;;;;;5069959;28;20170;-62
2024/03/08 00:22:36;;;;;;;31.00;16.98;;;4.40;84.90;;;;;;5063903;28;20115;-63
2024/03/08 00:25:02;;;;;;;31.58;17.33;;;4.40;84.90;;;;;;5061893;28;20196;-61
2024/03/08 00:27:30;;;;;;;30.58;17.55;;;4.40;84.90;;;;;;5068867;28;20036;-61
2024/03/08 00:30:00;;;;;;;27.42;16.55;;;4.40;85.00;;;;;;5066249;28;20039;-61
2024/03/08 00:32:27;;;;;;;27.30;17.00;;;4.40;85.10;;;;;;5064206;28;20119;-62
2024/03/08 00:34:56;;;;;;;31.58;18.13;;;4.40;85.10;;;;;;5067112;28;20035;-62
2024/03/08 00:37:21;;;;;;;30.60;17.33;;;4.30;85.10;;;;;;5066001;28;20116;-62
2024/03/08 00:39:49;;;;;;;33.78;17.50;;;4.30;85.10;;;;;;5070148;28;20132;-62
2024/03/08 00:42:15;;;;;;;29.48;17.63;;;4.30;85.20;;;;;;5066299;28;20502;-61
2024/03/08 00:44:41;;;;;;;32.20;18.30;;;4.30;85.20;;;;;;5071500;28;20025;-63
2024/03/08 00:47:06;;;;;;;32.20;17.90;;;4.20;85.10;;;;;;5068347;28;20396;-61
2024/03/08 00:49:32;;;;;;;29.73;16.70;;;4.30;85.30;;;;;;5062888;28;20036;-60
2024/03/08 00:51:57;;;;;;;33.17;18.48;;;4.30;85.20;;;;;;5071121;28;20048;-63
2024/03/08 00:54:23;;;;;;;29.05;17.45;;;4.30;85.10;;;;;;5062444;28;20506;-59
2024/03/08 00:56:49;;;;;;;31.73;18.60;;;4.30;85.30;;;;;;5064982;28;20060;-63
2024/03/08 00:59:14;;;;;;;31.45;18.02;;;4.30;85.10;;;;;;5068483;28;20036;-61
2024/03/08 01:01:41;;;;;;;30.80;17.65;;;4.30;85.00;;;;;;5066765;28;20040;-62
2024/03/08 01:04:07;;;;;;;33.88;18.25;;;4.20;85.00;;;;;;5072956;28;20115;-62
2024/03/08 01:06:33;;;;;;;32.72;18.45;;;4.20;85.10;;;;;;5066763;28;20182;-62
2024/03/08 01:08:59;;;;;;;32.40;18.15;;;4.20;85.10;;;;;;5065880;28;20032;-62
2024/03/08 01:11:25;;;;;;;32.30;17.73;;;4.20;85.20;;;;;;5067681;28;20090;-62
2024/03/08 01:13:50;;;;;;;30.83;18.48;;;4.20;85.30;;;;;;5065606;28;20040;-62
2024/03/08 01:16:16;;;;;;;30.05;17.15;;;4.20;85.30;;;;;;5071739;28;20182;-62
2024/03/08 01:18:43;;;;;;;34.55;18.90;;;4.20;85.20;;;;;;5066078;28;20408;-62
2024/03/08 01:21:08;;;;;;;31.08;17.88;;;4.10;85.30;;;;;;5072259;28;20032;-62
2024/03/08 01:23:34;;;;;;;32.85;18.65;;;4.10;85.30;;;;;;5071965;28;20036;-62
2024/03/08 01:26:02;;;;;;;31.17;17.65;;;4.10;85.40;;;;;;5069174;28;20109;-62
2024/03/08 01:28:28;;;;;;;33.10;18.42;;;4.10;85.40;;;;;;5063806;28;20033;-61
2024/03/08 01:30:56;;;;;;;33.25;18.25;;;4.00;85.40;;;;;;5069644;28;20718;-62
2024/03/08 01:33:26;;;;;;;32.45;18.48;;;4.00;85.50;;;;;;5068915;28;20031;-61
2024/03/08 01:35:53;;;;;;;31.98;18.10;;;4.00;85.60;;;;;;5072116;28;20029;-61
2024/03/08 01:38:19;;;;;;;33.63;18.77;;;4.00;85.50;;;;;;5066325;28;20099;-62
2024/03/08 01:40:45;;;;;;;35.67;19.17;;;3.90;85.60;;;;;;5061301;28;20080;-62
2024/03/08 01:43:29;;;;;;;33.60;18.77;;;3.90;85.60;;;;;;5063110;28;20503;-61
2024/03/08 01:46:01;;;;;;;30.67;17.85;;;3.90;85.80;;;;;;5060425;28;20897;-62
2024/03/08 01:48:28;;;;;;;38.25;18.67;;;3.90;85.70;;;;;;5068239;28;20036;-60
2024/03/08 01:50:55;;;;;;;35.78;18.77;;;3.90;85.80;;;;;;5061174;28;20044;-62
2024/03/08 01:53:20;;;;;;;32.78;19.23;;;3.90;85.80;;;;;;5064274;28;20025;-61
2024/03/08 01:55:48;;;;;;;32.53;18.27;;;3.90;85.80;;;;;;5064363;28;20523;-62
2024/03/08 01:58:17;;;;;;;31.77;17.85;;;3.80;86.00;;;;;;5058691;28;20116;-61
2024/03/08 02:00:44;;;;;;;34.17;18.55;;;3.80;86.00;;;;;;5066828;28;20488;-61
2024/03/08 02:03:10;;;;;;;33.03;17.80;;;3.80;86.20;;;;;;5057579;28;20322;-61
2024/03/08 02:05:38;;;;;;;32.20;18.05;;;3.80;86.30;;;;;;5065257;28;20087;-61
2024/03/08 02:08:07;;;;;;;32.08;18.58;;;3.80;86.50;;;;;;5063184;28;20671;-62
2024/03/08 02:10:36;;;;;;;36.60;19.55;;;3.80;86.50;;;;;;5065042;28;20128;-62
2024/03/08 02:13:02;;;;;;;32.83;18.33;;;3.80;86.60;;;;;;5060443;28;20032;-61
2024/03/08 02:15:54;;;;;;;33.83;18.90;;;3.80;86.70;;;;;;5062066;28;20048;-62
2024/03/08 02:18:20;;;;;;;32.78;18.08;;;3.80;86.90;;;;;;5064723;28;21783;-61
2024/03/08 02:20:57;;;;;;;32.92;18.08;;;3.80;86.80;;;;;;5069275;28;20041;-61
2024/03/08 02:23:26;;;;;;;30.40;17.25;;;3.80;87.70;;;;;;5067739;28;20048;-61
2024/03/08 02:25:53;;;;;;;33.22;18.77;;;3.80;86.90;;;;;;5055098;28;20045;-61
2024/03/08 02:28:19;;;;;;;35.78;19.13;;;3.70;87.00;;;;;;5060942;28;20044;-60
2024/03/08 02:30:55;;;;;;;32.92;18.58;;;3.80;87.30;;;;;;5060652;28;20078;-61
2024/03/08 02:33:21;;;;;;;30.88;18.60;;;3.70;87.30;;;;;;5062254;28;20037;-60
2024/03/08 02:35:48;;;;;;;33.72;18.92;;;3.80;87.40;;;;;;5064902;28;20032;-60
2024/03/08 02:38:22;;;;;;;35.60;18.65;;;3.80;87.50;;;;;;5064071;28;20032;-61
2024/03/08 02:40:50;;;;;;;32.20;18.37;;;3.80;87.70;;;;;;5066622;28;20096;-60
2024/03/08 02:43:21;;;;;;;33.63;18.85;;;3.80;87.70;;;;;;5052512;28;20047;-60
2024/03/08 02:45:47;;;;;;;31.98;18.48;;;3.80;87.70;;;;;;5058575;28;20024;-60
2024/03/08 02:48:14;;;;;;;34.45;19.83;;;3.80;87.70;;;;;;5064919;28;20039;-60
2024/03/08 02:50:42;;;;;;;32.88;18.55;;;3.90;87.70;;;;;;5064023;28;20279;-60
2024/03/08 02:53:08;;;;;;;35.42;19.45;;;3.90;87.70;;;;;;5068207;28;20029;-60
2024/03/08 02:55:35;;;;;;;34.00;19.52;;;3.90;87.70;;;;;;5059344;28;20032;-61
2024/03/08 02:58:04;;;;;;;37.15;20.02;;;3.90;88.60;;;;;;5057613;28;20159;-60
2024/03/08 03:00:30;;;;;;;34.10;19.17;;;3.90;87.50;;;;;;5063913;28;20037;-62
2024/03/08 03:02:57;;;;;;;32.42;19.55;;;3.90;87.50;;;;;;5057997;28;20040;-61
2024/03/08 03:05:23;;;;;;;33.17;19.42;;;3.90;87.50;;;;;;5066220;28;20052;-61
2024/03/08 03:07:49;;;;;;;35.00;19.65;;;3.90;87.50;;;;;;5062214;28;20056;-61
2024/03/08 03:10:16;;;;;;;34.88;19.73;;;3.90;87.50;;;;;;5061933;28;20645;-62
2024/03/08 03:12:42;;;;;;;32.30;18.73;;;3.90;87.50;;;;;;5063322;28;20032;-60
2024/03/08 03:15:08;;;;;;;32.70;18.88;;;4.00;87.70;;;;;;5060451;28;20032;-62
2024/03/08 03:17:34;;;;;;;32.03;19.20;;;4.00;87.70;;;;;;5055326;28;20082;-60
2024/03/08 03:20:04;;;;;;;30.33;18.05;;;4.00;87.70;;;;;;5066250;28;20025;-62
2024/03/08 03:22:30;;;;;;;33.55;18.77;;;4.00;87.70;;;;;;5062670;28;20036;-61
2024/03/08 03:24:58;;;;;;;33.08;19.35;;;4.00;87.70;;;;;;5057803;28;20032;-62
2024/03/08 03:27:24;;;;;;;32.92;18.83;;;4.00;87.60;;;;;;5059330;28;20492;-61
2024/03/08 03:29:51;;;;;;;34.17;19.77;;;4.00;87.60;;;;;;5058859;28;20449;-61
2024/03/08 03:32:18;;;;;;;34.85;20.50;;;4.00;87.60;;;;;;5060870;28;20056;-62
2024/03/08 03:34:44;;;;;;;33.97;19.20;;;4.00;87.70;;;;;;5064044;28;20056;-62
2024/03/08 03:37:13;;;;;;;32.40;19.27;;;4.00;87.70;;;;;;5066005;28;20035;-63
2024/03/08 03:39:57;;;;;;;34.35;19.65;;;4.00;87.70;;;;;;5061366;28;20029;-61
2024/03/08 03:42:24;;;;;;;34.47;20.42;;;4.10;87.70;;;;;;5061468;28;20496;-61
2024/03/08 03:44:49;;;;;;;37.75;19.58;;;4.10;87.60;;;;;;5064092;28;20119;-61
2024/03/08 03:47:15;;;;;;;34.78;19.60;;;4.10;87.50;;;;;;5060429;28;20207;-60
2024/03/08 03:49:42;;;;;;;33.63;20.30;;;4.10;87.50;;;;;;5058640;28;20033;-62
2024/03/08 03:52:08;;;;;;;34.72;19.70;;;4.10;87.30;;;;;;5061515;28;20135;-62
2024/03/08 03:54:34;;;;;;;35.40;20.10;;;4.10;87.30;;;;;;5057404;28;20124;-62
2024/03/08 03:57:00;;;;;;;33.22;18.73;;;4.10;87.30;;;;;;5065084;28;20024;-63
2024/03/08 03:59:26;;;;;;;34.50;19.35;;;4.10;87.30;;;;;;5064523;28;20036;-62
2024/03/08 04:01:53;;;;;;;36.30;21.00;;;4.10;88.20;;;;;;5062062;28;20029;-62
2024/03/08 04:04:18;;;;;;;33.92;19.02;;;4.10;87.50;;;;;;5066093;28;20100;-63
2024/03/08 04:06:44;;;;;;;36.90;19.88;;;4.10;87.50;;;;;;5054568;28;20040;-62
2024/03/08 04:09:11;;;;;;;37.88;19.58;;;4.00;87.50;;;;;;5062649;28;20043;-62
2024/03/08 04:11:36;;;;;;;32.53;19.25;;;4.00;87.50;;;;;;5065132;28;20047;-62
2024/03/08 04:14:02;;;;;;;33.13;19.50;;;4.10;87.50;;;;;;5060111;28;20559;-62
2024/03/08 04:16:27;;;;;;;32.97;18.63;;;4.10;87.50;;;;;;5059062;28;20037;-62
2024/03/08 04:18:53;;;;;;;32.00;19.27;;;4.10;87.50;;;;;;5060082;28;20040;-62
2024/03/08 04:21:19;;;;;;;33.47;19.48;;;4.00;87.30;;;;;;5058810;28;20480;-62
2024/03/08 04:23:45;;;;;;;35.70;19.60;;;4.00;87.30;;;;;;5063165;28;20508;-62
2024/03/08 04:26:11;;;;;;;34.80;19.25;;;4.00;87.30;;;;;;5053527;28;20035;-62
2024/03/08 04:28:37;;;;;;;32.13;19.15;;;4.00;87.30;;;;;;5056912;28;20040;-62
2024/03/08 04:31:03;;;;;;;34.20;19.20;;;4.00;87.40;;;;;;5054816;28;20059;-62
2024/03/08 04:33:29;;;;;;;33.30;18.98;;;4.00;87.40;;;;;;5059707;28;20393;-62
2024/03/08 04:35:54;;;;;;;35.33;19.70;;;4.00;87.50;;;;;;5055213;28;20089;-61
2024/03/08 04:38:20;;;;;;;35.65;19.33;;;4.00;87.50;;;;;;5062336;28;20063;-62
2024/03/08 04:40:46;;;;;;;33.35;19.73;;;4.00;87.50;;;;;;5061681;28;20090;-62
2024/03/08 04:43:11;;;;;;;34.45;19.38;;;4.00;87.50;;;;;;5055674;28;20128;-62
2024/03/08 04:45:37;;;;;;;33.75;19.48;;;4.00;87.50;;;;;;5056941;28;20285;-62
2024/03/08 04:48:03;;;;;;;33.72;18.60;;;4.00;87.50;;;;;;5057711;28;20050;-62
2024/03/08 04:50:28;;;;;;;35.65;19.20;;;4.00;87.60;;;;;;5055189;28;20553;-62
2024/03/08 04:52:55;;;;;;;33.20;19.48;;;4.00;87.50;;;;;;5058185;28;20593;-63
2024/03/08 04:55:21;;;;;;;32.22;18.92;;;4.00;87.50;;;;;;5057969;28;20107;-62
2024/03/08 04:57:47;;;;;;;32.95;18.75;;;4.00;87.50;;;;;;5057974;28;20539;-62
2024/03/08 05:00:14;;;;;;;33.70;19.13;;;4.00;87.50;;;;;;5065996;28;20443;-61
2024/03/08 05:02:41;;;;;;;33.25;18.75;;;4.00;87.50;;;;;;5054040;28;21097;-62
2024/03/08 05:05:07;;;;;;;33.85;18.75;;;4.00;87.50;;;;;;5064415;28;20040;-62
2024/03/08 05:07:33;;;;;;;33.67;18.55;;;4.00;87.50;;;;;;5060136;28;20040;-62
2024/03/08 05:09:59;;;;;;;34.88;18.95;;;4.00;87.50;;;;;;5057981;28;20047;-63
2024/03/08 05:12:24;;;;;;;33.10;19.67;;;4.00;87.50;;;;;;5060292;28;20580;-62
2024/03/08 05:14:50;;;;;;;34.83;19.42;;;4.00;87.60;;;;;;5058586;28;20127;-62
2024/03/08 05:17:19;;;;;;;34.45;18.77;;;4.00;87.70;;;;;;5061984;28;20520;-62
2024/03/08 05:19:44;;;;;;;37.35;19.92;;;4.00;88.50;;;;;;5062004;28;20033;-63
2024/03/08 05:22:10;;;;;;;34.25;18.42;;;4.00;87.70;;;;;;5065048;28;20025;-62
2024/03/08 05:24:36;;;;;;;32.40;18.90;;;4.00;87.70;;;;;;5067729;28;20120;-63
2024/03/08 05:27:03;;;;;;;33.88;18.88;;;4.00;87.70;;;;;;5059359;28;20029;-62
2024/03/08 05:29:29;;;;;;;33.50;19.05;;;4.00;87.70;;;;;;5059952;28;20029;-63
2024/03/08 05:31:55;;;;;;;33.08;19.40;;;4.00;87.70;;;;;;5053958;28;20064;-63
2024/03/08 05:34:21;;;;;;;36.92;20.08;;;4.00;87.70;;;;;;5060767;28;20087;-62
2024/03/08 05:36:49;;;;;;;33.97;19.50;;;4.00;87.70;;;;;;5066344;28;20028;-63
2024/03/08 05:39:15;;;;;;;33.58;19.08;;;4.00;87.70;;;;;;5065803;28;20064;-62
2024/03/08 05:41:41;;;;;;;31.30;18.15;;;4.00;87.60;;;;;;5065573;28;20107;-63
2024/03/08 05:44:08;;;;;;;33.17;19.42;;;4.00;87.70;;;;;;5062816;28;20047;-62
2024/03/08 05:46:34;;;;;;;34.53;19.13;;;4.00;87.70;;;;;;5054396;28;20025;-62
2024/03/08 05:49:00;;;;;;;30.73;18.27;;;4.00;87.70;;;;;;5065508;28;20045;-62
2024/03/08 05:51:28;;;;;;;35.55;19.10;;;3.90;87.60;;;;;;5068345;28;20041;-63
2024/03/08 05:53:56;;;;;;;32.15;18.23;;;4.00;87.70;;;;;;5063713;28;20041;-63
2024/03/08 05:56:25;;;;;;;34.08;19.20;;;3.90;87.60;;;;;;5063584;28;20511;-62
2024/03/08 05:58:50;;;;;;;32.55;19.13;;;3.90;87.60;;;;;;5062794;28;20526;-63
2024/03/08 06:01:16;;;;;;;36.00;19.95;;;3.90;87.80;;;;;;5068650;28;20172;-63
2024/03/08 06:03:45;;;;;;;31.90;18.13;;;3.90;87.90;;;;;;5070431;28;20503;-63
2024/03/08 06:06:15;;;;;;;34.83;18.50;;;3.90;87.80;;;;;;5058496;28;20040;-63
2024/03/08 06:08:42;;;;;;;32.35;17.65;;;3.90;87.80;;;;;;5065333;28;20044;-63
2024/03/08 06:11:08;;;;;;;30.77;17.80;;;3.90;87.90;;;;;;5068053;28;20522;-63
2024/03/08 06:13:34;;;;;;;30.70;17.70;;;3.80;87.90;;;;;;5066283;28;20109;-63
2024/03/08 06:16:03;;;;;;;32.55;17.50;;;3.80;87.90;;;;;;5068640;28;20243;-63
2024/03/08 06:18:30;;;;;;;32.90;18.50;;;3.80;88.20;;;;;;5064802;28;20056;-63
2024/03/08 06:20:56;;;;;;;34.08;18.73;;;3.80;88.10;;;;;;5064410;28;20033;-62
2024/03/08 06:23:22;;;;;;;35.72;20.02;;;3.90;88.20;;;;;;5061934;28;20104;-62
2024/03/08 06:25:47;;;;;;;33.10;19.13;;;3.80;88.10;;;;;;5064729;28;20037;-62
2024/03/08 06:28:14;;;;;;;31.92;17.83;;;3.90;88.10;;;;;;5066689;28;20403;-61
2024/03/08 06:30:40;;;;;;;32.40;19.02;;;3.90;88.20;;;;;;5065075;28;20059;-61
2024/03/08 06:33:05;;;;;;;33.63;18.77;;;3.90;88.20;;;;;;5069747;28;20032;-62
2024/03/08 06:35:34;;;;;;;35.70;19.67;;;3.90;88.20;;;;;;5067716;28;20029;-61
2024/03/08 06:38:00;;;;;;;33.05;18.67;;;3.90;88.20;;;;;;5064484;28;20029;-59
2024/03/08 06:40:26;;;;;;;33.75;18.17;;;3.90;88.10;;;;;;5065928;28;20047;-60
2024/03/08 06:42:51;;;;;;;35.80;19.00;;;3.90;88.00;;;;;;5066398;28;20037;-62
2024/03/08 06:45:20;;;;;;;32.35;18.85;;;4.00;88.20;;;;;;5068170;28;20059;-62
2024/03/08 06:47:46;;;;;;;33.30;17.88;;;4.00;88.00;;;;;;5063703;28;20458;-62
2024/03/08 06:50:12;;;;;;;32.38;18.15;;;4.00;88.00;;;;;;5065031;28;20041;-62
2024/03/08 06:52:38;;;;;;;30.23;17.42;;;4.00;88.00;;;;;;5065150;28;20415;-61
2024/03/08 06:55:05;;;;;;;32.03;17.88;;;4.00;88.00;;;;;;5064441;28;20031;-60
2024/03/08 06:57:31;;;;;;;30.23;17.65;;;4.00;88.00;;;;;;5058528;28;20117;-61
2024/03/08 06:59:59;;;;;;;31.05;17.48;;;4.00;87.80;;;;;;5067317;28;20661;-61
2024/03/08 07:02:25;;;;;;;33.22;18.58;;;4.00;87.90;;;;;;5058410;28;20281;-60
2024/03/08 07:04:52;;;;;;;32.72;18.08;;;4.00;87.90;;;;;;5064879;28;21473;-60
2024/03/08 07:07:20;;;;;;;32.88;18.42;;;4.00;87.80;;;;;;5067440;28;20074;-61
2024/03/08 07:09:46;;;;;;;30.02;16.98;;;4.00;87.80;;;;;;5064186;28;20083;-60
2024/03/08 07:12:13;;;;;;;31.60;17.60;;;4.00;87.90;;;;;;5066573;28;20036;-61
2024/03/08 07:14:41;;;;;;;32.67;17.98;;;3.90;88.70;;;;;;5064320;28;20107;-62
2024/03/08 07:17:08;;;;;;;32.80;18.25;;;4.00;88.00;;;;;;5067464;28;20075;-61
2024/03/08 07:19:34;;;;;;;30.90;18.15;;;3.90;88.00;;;;;;5065247;28;20064;-61
2024/03/08 07:22:00;;;;;;;34.15;18.52;;;3.90;87.90;;;;;;5067531;28;20044;-62
2024/03/08 07:27:06;;;;;;;29.17;16.15;;;4.00;88.00;;;;;;5064913;28;20657;-61
2024/03/08 07:29:33;;;;;;;30.45;17.80;;;3.90;88.00;;;;;;5066427;28;20071;-62
2024/03/08 07:34:31;;;;;;;29.17;16.52;;;3.90;88.20;;;;;;5067111;28;20430;-61
2024/03/08 07:36:57;;;;;;;31.67;17.52;;;3.90;88.20;;;;;;5064091;28;20044;-61
2024/03/08 07:39:23;;;;;;;32.63;17.25;;;4.00;88.20;;;;;;5065573;28;20455;-61
2024/03/08 07:41:52;;;;;;;31.40;17.10;;;3.90;88.20;;;;;;5064646;28;20033;-60
2024/03/08 07:44:18;;;;;;;33.17;18.92;;;4.00;88.20;;;;;;5065460;28;20052;-62
2024/03/08 07:46:44;;;;;;;28.02;16.23;;;3.90;88.20;;;;;;5064131;28;20036;-58
2024/03/08 07:49:11;;;;;;;32.92;17.88;;;3.90;88.20;;;;;;5063864;28;20090;-62
2024/03/08 07:51:37;;;;;;;29.38;17.05;;;4.00;88.40;;;;;;5063326;28;20050;-58
2024/03/08 07:54:04;;;;;;;31.73;17.52;;;3.90;88.20;;;;;;5063951;28;21709;-61
2024/03/08 07:56:30;;;;;;;30.58;16.52;;;4.00;88.40;;;;;;5065295;28;20044;-61
2024/03/08 07:58:56;;;;;;;30.63;16.65;;;4.00;88.30;;;;;;5063028;28;20043;-62
2024/03/08 08:01:22;;;;;;;31.92;17.45;;;4.00;88.40;;;;;;5064291;28;20033;-61
2024/03/08 08:03:51;;;;;;;30.33;16.55;;;4.00;88.30;;;;;;5062077;28;20045;-59
2024/03/08 08:06:16;;;;;;;29.30;17.13;;;4.00;88.20;;;;;;5062806;28;20044;-60
2024/03/08 08:08:42;;;;;;;31.00;16.63;;;4.00;88.20;;;;;;5066926;28;20434;-61
2024/03/08 08:11:08;;;;;;;27.38;15.73;;;4.00;88.20;;;;;;5069357;28;20039;-62
2024/03/08 08:13:36;;;;;;;28.02;15.90;;;4.00;88.10;;;;;;5065372;28;20102;-62
2024/03/08 08:16:02;;;;;;;30.60;16.73;;;4.00;88.10;;;;;;5058085;28;20399;-62
2024/03/08 08:18:29;;;;;;;29.10;16.60;;;4.00;88.30;;;;;;5065111;28;20614;-58
2024/03/08 08:20:55;;;;;;;31.00;16.80;;;4.00;88.30;;;;;;5059975;28;20105;-61
2024/03/08 08:23:21;;;;;;;29.27;15.48;;;4.00;88.20;;;;;;5064212;28;20090;-60
2024/03/08 08:25:49;;;;;;;29.80;16.15;;;4.00;88.20;;;;;;5064969;28;20032;-60
2024/03/08 08:28:18;;;;;;;31.15;16.52;;;4.00;88.30;;;;;;5062703;28;20039;-61
2024/03/08 08:30:44;;;;;;;29.35;16.30;;;4.00;88.40;;;;;;5064424;28;20450;-62
2024/03/08 08:33:10;;;;;;;29.88;16.85;;;4.00;88.40;;;;;;5059272;28;20135;-61
2024/03/08 08:35:39;;;;;;;29.95;16.65;;;4.00;88.40;;;;;;5064678;28;20551;-60
2024/03/08 08:38:05;;;;;;;30.25;16.42;;;4.10;88.40;;;;;;5058049;28;20127;-59
2024/03/08 08:40:31;;;;;;;26.10;14.85;;;4.10;88.40;;;;;;5060900;28;20048;-59
2024/03/08 08:42:58;;;;;;;30.15;16.48;;;4.10;88.30;;;;;;5059707;28;20040;-61
2024/03/08 08:45:23;;;;;;;28.90;16.20;;;4.10;88.30;;;;;;5066969;28;20511;-61
2024/03/08 08:47:49;;;;;;;27.48;15.05;;;4.20;88.20;;;;;;5066023;28;20063;-60
2024/03/08 08:50:16;;;;;;;29.80;15.93;;;4.20;88.20;;;;;;5064948;28;20251;-60
2024/03/08 08:52:44;;;;;;;27.52;15.60;;;4.20;88.20;;;;;;5061019;28;20424;-59
2024/03/08 08:55:14;;;;;;;24.80;14.20;;;4.20;88.20;;;;;;5063392;28;20028;-61
2024/03/08 08:57:40;;;;;;;24.38;14.68;;;4.20;88.10;;;;;;5068019;28;20124;-61
2024/03/08 09:00:14;;;;;;;27.40;15.02;;;4.20;87.90;;;;;;5066431;28;20031;-60
2024/03/08 09:02:40;;;;;;;27.23;15.07;;;4.20;87.90;;;;;;5061698;28;20025;-61
2024/03/08 09:05:07;;;;;;;23.92;14.48;;;4.20;87.70;;;;;;5064288;28;20058;-61
2024/03/08 09:07:33;;;;;;;26.25;14.80;;;4.20;87.70;;;;;;5068891;28;20512;-61
2024/03/08 09:10:02;;;;;;;27.65;15.13;;;4.20;87.90;;;;;;5057904;28;20053;-61
2024/03/08 09:12:28;;;;;;;27.75;15.02;;;4.20;87.90;;;;;;5065886;28;20033;-60
2024/03/08 09:14:53;;;;;;;26.52;14.68;;;4.20;87.90;;;;;;5067052;28;20033;-61
2024/03/08 09:17:22;;;;;;;25.42;14.60;;;4.30;88.00;;;;;;5066782;28;20036;-61
2024/03/08 09:19:47;;;;;;;26.70;14.82;;;4.30;88.10;;;;;;5063748;28;20028;-60
2024/03/08 09:22:13;;;;;;;26.58;13.90;;;4.30;88.00;;;;;;5063066;28;20570;-58
2024/03/08 09:24:39;;;;;;;26.25;14.82;;;4.40;87.90;;;;;;5062858;28;20057;-59
2024/03/08 09:27:05;;;;;;;26.83;14.35;;;4.30;87.80;;;;;;5071325;28;20099;-58
2024/03/08 09:29:30;;;;;;;25.65;14.57;;;4.40;87.90;;;;;;5060512;28;20032;-61
2024/03/08 09:31:56;;;;;;;26.85;14.57;;;4.40;87.70;;;;;;5064199;28;20045;-60
2024/03/08 09:34:22;;;;;;;27.27;14.23;;;4.40;87.50;;;;;;5064158;28;20040;-60
2024/03/08 09:36:47;;;;;;;26.63;15.18;;;4.40;87.40;;;;;;5068408;28;20420;-60
2024/03/08 09:39:16;;;;;;;25.42;15.00;;;4.30;87.50;;;;;;5063470;28;20041;-61
2024/03/08 09:41:49;;;;;;;24.58;14.30;;;4.30;87.60;;;;;;5057436;28;20056;-61
2024/03/08 09:44:15;;;;;;;23.33;14.10;;;4.30;87.70;;;;;;5070016;28;20033;-60
2024/03/08 09:46:42;;;;;;;25.02;13.85;;;4.30;87.90;;;;;;5061338;28;20063;-61
2024/03/08 09:49:08;;;;;;;25.60;14.27;;;4.30;88.00;;;;;;5058662;28;20385;-61
2024/03/08 09:51:35;;;;;;;25.65;13.93;;;4.40;87.90;;;;;;5061166;28;20140;-59
2024/03/08 09:54:04;;;;;;;25.88;14.20;;;4.50;87.90;;;;;;5062913;28;20408;-60
2024/03/08 09:56:35;;;;;;;26.08;15.05;;;4.50;87.80;;;;;;5066562;28;20036;-60
2024/03/08 10:01:45;;;;;;;27.80;14.77;;;4.50;87.70;;;;;;5064695;28;20518;-62
2024/03/08 10:04:11;;;;;;;28.50;15.15;;;4.50;87.70;;;;;;5060607;28;20123;-61
2024/03/08 10:06:37;;;;;;;26.42;15.55;;;4.50;87.70;;;;;;5061223;28;20044;-60
2024/03/08 10:09:04;;;;;;;27.83;15.63;;;4.60;87.80;;;;;;5068487;28;20040;-61
2024/03/08 10:11:30;;;;;;;28.30;15.70;;;4.60;87.80;;;;;;5063521;28;20039;-59
2024/03/08 10:13:56;;;;;;;28.20;15.68;;;4.60;87.70;;;;;;5063757;28;20535;-62
2024/03/08 10:16:24;;;;;;;27.83;15.52;;;4.60;87.90;;;;;;5062785;27;20504;-60
2024/03/08 10:18:49;;;;;;;31.15;16.00;;;4.70;87.90;;;;;;5066131;28;20045;-61
2024/03/08 10:21:15;;;;;;;26.63;15.05;;;4.70;87.90;;;;;;5066632;28;20042;-61
2024/03/08 10:23:43;;;;;;;25.38;14.75;;;4.70;87.60;;;;;;5066904;28;20055;-61
2024/03/08 10:26:14;;;;;;;25.13;15.32;;;4.70;87.50;;;;;;5066086;28;20039;-61
2024/03/08 10:28:50;;;;;;;25.40;14.13;;;4.80;87.50;;;;;;5064126;28;20055;-60
2024/03/08 10:31:17;;;;;;;25.88;14.93;;;4.80;87.40;;;;;;5068692;28;20082;-61
2024/03/08 10:33:44;;;;;;;24.55;14.45;;;4.80;87.30;;;;;;5065107;28;20102;-61
2024/03/08 10:36:10;;;;;;;26.08;14.10;;;4.90;87.40;;;;;;5067914;28;20480;-62
2024/03/08 10:38:41;;;;;;;23.48;13.57;;;4.90;87.30;;;;;;5064594;28;20135;-61
2024/03/08 10:41:09;;;;;;;26.15;14.80;;;4.90;87.20;;;;;;5065539;28;20028;-62
2024/03/08 10:44:08;;;;;;;25.17;14.82;;;4.90;87.20;;;;;;5065711;28;20040;-61
2024/03/08 10:46:46;;;;;;;24.25;14.05;;;4.90;86.90;;;;;;5063587;28;20128;-63
2024/03/08 10:49:20;;;;;;;25.83;14.88;;;5.00;86.80;;;;;;5064174;28;20040;-60
2024/03/08 10:51:48;;;;;;;24.92;13.70;;;5.00;86.80;;;;;;5067330;28;20379;-61
2024/03/08 10:54:15;;;;;;;25.52;14.30;;;5.00;86.80;;;;;;5066595;28;20551;-60
2024/03/08 10:56:41;;;;;;;24.67;14.60;;;5.00;86.50;;;;;;5067039;28;20041;-61
2024/03/08 10:59:08;;;;;;;25.02;13.98;;;5.00;86.50;;;;;;5063464;28;20411;-61
2024/03/08 11:01:34;;;;;;;24.33;13.98;;;4.90;86.30;;;;;;5061966;28;20560;-62
2024/03/08 11:04:04;;;;;;;23.75;13.82;;;4.90;86.60;;;;;;5060522;28;20067;-60
2024/03/08 11:06:31;;;;;;;24.20;14.57;;;4.90;86.80;;;;;;5060284;28;20051;-60
2024/03/08 11:08:58;;;;;;;25.38;13.75;;;4.90;87.00;;;;;;5061494;28;20036;-60
2024/03/08 11:11:30;;;;;;;25.40;14.57;;;5.00;87.20;;;;;;5065901;28;20040;-62
2024/03/08 11:13:58;;;;;;;22.90;13.65;;;5.00;87.80;;;;;;5065558;28;20037;-61
2024/03/08 11:16:26;;;;;;;25.30;14.18;;;5.00;86.90;;;;;;5063362;28;20034;-61
2024/03/08 11:19:23;;;;;;;22.85;13.60;;;5.10;86.80;;;;;;5059012;28;20115;-61
2024/03/08 11:21:57;;;;;;;24.67;13.75;;;5.10;86.50;;;;;;5059469;28;20037;-60
2024/03/08 11:24:23;;;;;;;24.17;13.88;;;5.20;86.60;;;;;;5064226;28;20123;-60
2024/03/08 11:26:49;;;;;;;26.45;14.15;;;5.20;86.70;;;;;;5061916;28;21544;-61
2024/03/08 11:29:35;;;;;;;23.27;13.90;;;5.20;86.50;;;;;;5068276;28;20415;-61
2024/03/08 11:32:11;;;;;;;23.20;13.95;;;5.20;86.10;;;;;;5058773;28;20508;-62
2024/03/08 11:34:39;;;;;;;24.05;13.93;;;5.20;86.30;;;;;;5062697;28;20047;-61
2024/03/08 11:37:12;;;;;;;24.52;14.57;;;5.20;86.20;;;;;;5065189;28;20028;-62
2024/03/08 11:39:39;;;;;;;23.30;13.48;;;5.20;86.30;;;;;;5055260;28;20693;-61
2024/03/08 11:42:06;;;;;;;23.52;13.65;;;5.20;86.30;;;;;;5062470;28;20404;-60
2024/03/08 11:44:32;;;;;;;23.00;13.55;;;5.20;86.50;;;;;;5064471;28;20498;-62
2024/03/08 11:46:57;;;;;;;23.33;14.40;;;5.20;86.50;;;;;;5060298;28;20135;-61
2024/03/08 11:49:23;;;;;;;22.48;13.63;;;5.30;86.50;;;;;;5061697;28;20037;-60
2024/03/08 11:51:53;;;;;;;25.33;13.75;;;5.30;86.40;;;;;;5062485;28;20039;-60
2024/03/08 11:54:19;;;;;;;24.00;14.18;;;5.30;86.60;;;;;;5056720;28;20033;-61
2024/03/08 11:56:47;;;;;;;26.55;13.90;;;5.30;87.50;;;;;;5062000;28;20025;-61
2024/03/08 11:59:13;;;;;;;23.42;13.93;;;5.40;86.60;;;;;;5061468;28;20094;-61
2024/03/08 12:01:39;;;;;;;22.65;13.95;;;5.40;86.60;;;;;;5056098;28;20033;-61
2024/03/08 12:04:06;;;;;;;24.25;14.25;;;5.50;86.60;;;;;;5058151;28;20403;-61
2024/03/08 12:06:41;;;;;;;22.38;13.98;;;5.50;86.30;;;;;;5063101;28;20412;-60
2024/03/08 12:09:13;;;;;;;23.58;13.98;;;5.50;86.00;;;;;;5061492;28;20082;-61
2024/03/08 12:11:40;;;;;;;25.05;14.85;;;5.60;86.20;;;;;;5061701;28;20523;-62
2024/03/08 12:14:06;;;;;;;25.45;14.98;;;5.60;86.30;;;;;;5064977;28;20066;-62
2024/03/08 12:16:37;;;;;;;24.13;14.23;;;5.60;86.30;;;;;;5068221;28;20083;-62
2024/03/08 12:19:04;;;;;;;24.30;14.38;;;5.70;86.30;;;;;;5063334;28;20049;-62
2024/03/08 12:21:32;;;;;;;26.52;15.13;;;5.70;86.50;;;;;;5070801;28;20123;-61
2024/03/08 12:24:09;;;;;;;24.85;14.48;;;5.80;86.50;;;;;;5069193;28;20475;-61
2024/03/08 12:26:40;;;;;;;24.98;15.10;;;5.80;86.50;;;;;;5065460;28;20474;-62
2024/03/08 12:29:17;;;;;;;26.50;14.98;;;5.90;86.40;;;;;;5068886;28;20037;-59
2024/03/08 12:31:43;;;;;;;23.27;14.25;;;6.00;85.90;;;;;;5065139;28;20044;-61
2024/03/08 12:34:09;;;;;;;26.08;14.32;;;6.00;86.00;;;;;;5060303;28;20119;-62
2024/03/08 12:36:39;;;;;;;23.80;15.05;;;6.10;85.80;;;;;;5064720;28;20408;-61
2024/03/08 12:39:09;;;;;;;22.80;13.90;;;6.10;85.60;;;;;;5071287;28;20090;-60
2024/03/08 12:41:40;;;;;;;25.02;14.88;;;6.20;85.40;;;;;;5064171;28;20043;-60
2024/03/08 12:44:10;;;;;;;23.17;14.65;;;6.20;85.30;;;;;;5073853;28;20120;-62